Time;durP1;ratioP1;P1;durP2;ratioP2;P2;SDS_P1;SDS_P2;PMS_P1;PMS_P2;Temp;Humidity;BMP_temperature;BMP_pressure;BME280_temperature;BME280_humidity;BME280_pressure;Samples;Min_cycle;Max_cycle;Signal;HPM_P1;HPM_P2
2022/07/02 00:01:03;;;;;;;7.80;5.28;;;;;;;21.30;100.00;99066.13;4400682;32;20078;-70
2022/07/02 00:03:33;;;;;;;9.70;5.53;;;;;;;21.47;100.00;99073.56;4396843;32;20047;-71
2022/07/02 00:06:01;;;;;;;6.03;4.93;;;;;;;21.19;100.00;99051.97;4400168;32;20319;-71
2022/07/02 00:08:29;;;;;;;9.02;5.75;;;;;;;21.26;100.00;99057.75;4401725;32;20077;-70
2022/07/02 00:10:57;;;;;;;6.30;5.40;;;;;;;21.33;100.00;99065.50;4400272;32;20064;-70
2022/07/02 00:13:26;;;;;;;5.12;4.62;;;;;;;21.27;100.00;99084.03;4399729;32;20445;-71
2022/07/02 00:16:00;;;;;;;5.55;5.10;;;;;;;20.81;100.00;99038.84;4399723;32;20055;-71
2022/07/02 00:18:28;;;;;;;7.10;5.22;;;;;;;21.09;100.00;99088.63;4399343;32;20039;-70
2022/07/02 00:20:55;;;;;;;6.15;4.72;;;;;;;20.86;100.00;99074.25;4400026;32;20804;-70
2022/07/02 00:23:22;;;;;;;7.85;4.85;;;;;;;21.03;100.00;99126.31;4400212;32;20393;-71
2022/07/02 00:26:13;;;;;;;5.30;4.43;;;;;;;20.91;100.00;99065.09;4399808;32;20065;-71
2022/07/02 00:28:42;;;;;;;8.65;4.93;;;;;;;21.35;100.00;99102.41;4399344;32;20035;-71
2022/07/02 00:31:08;;;;;;;4.50;4.00;;;;;;;21.34;100.00;99084.34;4402530;32;20043;-71
2022/07/02 00:33:37;;;;;;;5.10;4.28;;;;;;;21.35;100.00;99088.72;4389210;32;20046;-71
2022/07/02 00:36:04;;;;;;;4.90;4.45;;;;;;;20.74;100.00;99052.16;4402520;32;20064;-71
2022/07/02 00:38:31;;;;;;;5.28;4.68;;;;;;;20.94;100.00;99100.84;4402762;32;20064;-71
2022/07/02 00:41:00;;;;;;;4.55;4.25;;;;;;;20.92;100.00;99122.25;4402333;32;20454;-71
2022/07/02 00:43:27;;;;;;;6.80;5.60;;;;;;;20.95;100.00;99116.16;4402306;32;20042;-71
2022/07/02 00:45:56;;;;;;;6.12;4.78;;;;;;;20.51;100.00;99041.28;4402579;32;20445;-71
2022/07/02 00:48:23;;;;;;;4.57;4.18;;;;;;;20.51;100.00;99060.41;4401580;32;20191;-71
2022/07/02 00:50:49;;;;;;;6.18;4.80;;;;;;;20.90;100.00;99121.78;4388829;32;20060;-70
2022/07/02 00:53:16;;;;;;;7.22;4.30;;;;;;;20.83;100.00;99135.09;4387572;32;20085;-70
2022/07/02 00:55:42;;;;;;;6.82;5.18;;;;;;;20.80;100.00;99141.19;4388774;32;20417;-70
2022/07/02 00:58:08;;;;;;;8.48;5.62;;;;;;;20.62;100.00;99146.53;4401614;32;20170;-71
2022/07/02 01:00:35;;;;;;;6.70;5.43;;;;;;;20.46;100.00;99115.25;4402449;32;20077;-71
2022/07/02 01:03:02;;;;;;;6.90;4.78;;;;;;;20.24;100.00;99119.59;4402343;32;20047;-71
2022/07/02 01:05:28;;;;;;;5.97;5.43;;;;;;;20.46;100.00;99109.78;4400718;32;20080;-73
2022/07/02 01:10:49;;;;;;;7.87;5.55;;;;;;;20.33;100.00;99106.81;4402046;32;20039;-71
2022/07/02 01:13:17;;;;;;;8.60;5.70;;;;;;;20.39;100.00;99115.69;4401812;32;20060;-72
2022/07/02 01:15:44;;;;;;;7.85;5.70;;;;;;;20.11;100.00;99074.81;4401024;32;20082;-72
2022/07/02 01:18:17;;;;;;;7.07;6.37;;;;;;;20.33;100.00;99123.22;4402183;32;20035;-71
2022/07/02 01:20:44;;;;;;;6.60;6.00;;;;;;;20.19;100.00;99117.00;4402166;32;20065;-71
2022/07/02 01:23:11;;;;;;;7.10;6.28;;;;;;;20.31;100.00;99125.47;4402102;32;20046;-71
2022/07/02 01:25:37;;;;;;;6.87;5.90;;;;;;;20.28;100.00;99120.62;4402728;32;20407;-71
2022/07/02 01:28:10;;;;;;;9.43;6.35;;;;;;;19.91;100.00;99141.72;4401296;32;20085;-71
2022/07/02 01:30:36;;;;;;;6.97;6.20;;;;;;;19.92;100.00;99137.88;4401345;32;20042;-72
2022/07/02 01:33:02;;;;;;;9.52;6.25;;;;;;;19.87;100.00;99173.50;4400500;32;20026;-72
2022/07/02 01:35:29;;;;;;;6.90;6.30;;;;;;;19.93;100.00;99196.88;4402142;32;20088;-71
2022/07/02 01:37:55;;;;;;;7.85;6.78;;;;;;;20.06;100.00;99178.03;4401725;32;20039;-71
2022/07/02 01:40:22;;;;;;;8.95;6.72;;;;;;;19.42;100.00;99159.72;4401690;32;20341;-71
2022/07/02 01:42:48;;;;;;;6.78;6.15;;;;;;;19.70;100.00;99197.91;4401185;32;20034;-71
2022/07/02 01:45:15;;;;;;;8.82;6.93;;;;;;;19.71;100.00;99205.00;4386352;32;20427;-71
2022/07/02 01:47:41;;;;;;;8.40;7.45;;;;;;;19.78;100.00;99194.47;4401744;32;20043;-71
2022/07/02 01:50:08;;;;;;;7.87;7.07;;;;;;;19.58;100.00;99190.25;4401089;32;20355;-72
2022/07/02 01:52:34;;;;;;;8.88;7.50;;;;;;;19.26;100.00;99152.94;4400595;32;20074;-72
2022/07/02 01:55:01;;;;;;;9.95;7.82;;;;;;;19.51;100.00;99157.88;4401646;32;20043;-71
2022/07/02 01:57:33;;;;;;;8.30;7.28;;;;;;;19.19;100.00;99134.25;4401385;32;20069;-71
2022/07/02 02:00:00;;;;;;;8.02;7.32;;;;;;;19.40;100.00;99140.09;4388017;32;20040;-71
2022/07/02 02:02:26;;;;;;;8.00;7.20;;;;;;;19.73;100.00;99176.25;4401693;32;20038;-71
2022/07/02 02:04:52;;;;;;;11.00;6.93;;;;;;;19.78;100.00;99189.00;4400865;32;20043;-71
2022/07/02 02:07:19;;;;;;;8.80;7.30;;;;;;;19.76;100.00;99169.41;4399998;32;20404;-71
2022/07/02 02:09:45;;;;;;;8.32;6.70;;;;;;;19.39;100.00;99187.63;4401490;32;20080;-71
2022/07/02 02:12:12;;;;;;;9.75;7.20;;;;;;;19.54;100.00;99167.38;4401037;32;20042;-71
2022/07/02 02:14:38;;;;;;;17.12;7.57;;;;;;;19.49;100.00;99194.81;4387399;32;20383;-71
2022/07/02 02:17:05;;;;;;;8.25;6.93;;;;;;;19.55;100.00;99191.66;4401222;32;20107;-71
2022/07/02 02:19:32;;;;;;;7.70;6.53;;;;;;;19.22;100.00;99183.56;4400007;32;20039;-71
2022/07/02 02:21:58;;;;;;;10.20;6.72;;;;;;;19.17;100.00;99191.06;4401141;32;20072;-71
2022/07/02 02:24:24;;;;;;;9.50;6.15;;;;;;;19.01;100.00;99209.66;4386212;32;20063;-73
2022/07/02 02:26:51;;;;;;;7.03;6.43;;;;;;;19.18;100.00;99193.50;4400506;32;20042;-70
2022/07/02 02:29:17;;;;;;;9.80;7.15;;;;;;;19.47;100.00;99200.56;4400713;32;20843;-70
2022/07/02 02:31:43;;;;;;;8.45;6.93;;;;;;;19.54;100.00;99194.69;4401067;32;20035;-70
2022/07/02 02:34:10;;;;;;;7.28;5.55;;;;;;;19.28;100.00;99158.94;4401012;32;20043;-70
2022/07/02 02:36:36;;;;;;;7.22;5.78;;;;;;;19.35;100.00;99181.16;4401047;32;20043;-70
2022/07/02 02:39:03;;;;;;;7.35;6.20;;;;;;;19.03;100.00;99147.37;4401284;32;20346;-70
2022/07/02 02:41:29;;;;;;;6.68;5.55;;;;;;;19.53;100.00;99193.06;4399723;32;20195;-71
2022/07/02 02:43:56;;;;;;;5.65;4.95;;;;;;;19.24;100.00;99208.66;4399985;32;20093;-70
2022/07/02 02:46:22;;;;;;;7.05;5.45;;;;;;;18.97;100.00;99212.19;4400927;32;20072;-71
2022/07/02 02:48:48;;;;;;;10.98;7.10;;;;;;;18.79;100.00;99170.16;4400962;32;20065;-71
2022/07/02 02:51:22;;;;;;;9.77;7.95;;;;;;;18.78;100.00;99193.13;4406780;32;20077;-69
2022/07/02 02:53:49;;;;;;;8.85;6.72;;;;;;;19.00;100.00;99208.84;4416063;32;20042;-71
2022/07/02 02:56:15;;;;;;;9.18;7.68;;;;;;;19.02;100.00;99205.81;4415652;32;20064;-71
2022/07/02 02:58:42;;;;;;;9.30;7.75;;;;;;;18.91;100.00;99188.00;4413978;32;20068;-72
2022/07/02 03:01:08;;;;;;;10.52;7.82;;;;;;;18.80;100.00;99171.00;4415794;32;20809;-71
2022/07/02 03:03:34;;;;;;;11.27;8.13;;;;;;;18.87;100.00;99234.16;4415724;32;20063;-71
2022/07/02 03:06:01;;;;;;;10.30;7.85;;;;;;;18.84;100.00;99185.66;4415613;32;20050;-71
2022/07/02 03:08:28;;;;;;;12.13;8.75;;;;;;;19.07;100.00;99222.09;4415038;32;20083;-71
2022/07/02 03:10:54;;;;;;;11.50;8.00;;;;;;;18.79;100.00;99241.09;4401793;32;20513;-71
2022/07/02 03:13:20;;;;;;;9.68;7.55;;;;;;;18.59;100.00;99239.53;4413859;32;20064;-70
2022/07/02 03:15:47;;;;;;;7.20;6.43;;;;;;;18.56;100.00;99242.03;4414935;32;20068;-71
2022/07/02 03:18:13;;;;;;;9.80;7.62;;;;;;;18.41;100.00;99249.38;4414627;32;20371;-71
2022/07/02 03:20:40;;;;;;;6.75;5.90;;;;;;;18.47;100.00;99267.22;4414445;32;20352;-71
2022/07/02 03:23:06;;;;;;;6.55;5.85;;;;;;;18.04;100.00;99206.56;4415625;32;20046;-70
2022/07/02 03:25:32;;;;;;;11.48;5.68;;;;;;;18.59;100.00;99253.16;4401960;32;20034;-71
2022/07/02 03:27:59;;;;;;;10.68;5.72;;;;;;;18.52;100.00;99237.19;4414915;32;20038;-70
2022/07/02 03:30:25;;;;;;;6.60;5.75;;;;;;;18.34;100.00;99213.47;4415688;32;20030;-70
2022/07/02 03:32:52;;;;;;;5.03;4.62;;;;;;;18.47;100.00;99228.25;4415112;32;20466;-70
2022/07/02 03:35:18;;;;;;;5.15;4.55;;;;;;;18.63;100.00;99247.91;4401069;32;20060;-71
2022/07/02 03:37:45;;;;;;;4.00;3.70;;;;;;;18.39;100.00;99221.56;4414062;32;20119;-72
2022/07/02 03:40:11;;;;;;;9.38;5.05;;;;;;;18.71;100.00;99263.59;4410009;32;20056;-71
2022/07/02 03:42:44;;;;;;;4.68;4.15;;;;;;;18.83;100.00;99258.50;4399752;32;20892;-71
2022/07/02 03:45:16;;;;;;;10.57;5.07;;;;;;;18.66;100.00;99263.69;4399109;32;20031;-71
2022/07/02 03:47:43;;;;;;;4.97;4.57;;;;;;;18.62;100.00;99270.81;4400151;32;20141;-71
2022/07/02 03:50:09;;;;;;;5.60;5.10;;;;;;;18.36;100.00;99227.59;4400168;32;20043;-71
2022/07/02 03:52:38;;;;;;;7.37;5.30;;;;;;;18.62;100.00;99274.38;4399924;32;20054;-70
2022/07/02 03:55:11;;;;;;;6.70;4.68;;;;;;;18.43;100.00;99222.59;4399231;32;20047;-71
2022/07/02 03:57:37;;;;;;;6.15;5.57;;;;;;;18.73;100.00;99266.84;4399642;32;20175;-70
2022/07/02 04:00:05;;;;;;;6.47;5.53;;;;;;;18.85;100.00;99261.75;4400183;32;20039;-71
2022/07/02 04:02:39;;;;;;;6.87;5.20;;;;;;;18.37;100.00;99231.97;4400627;32;20034;-71
2022/07/02 04:05:06;;;;;;;7.57;6.43;;;;;;;18.32;100.00;99237.50;4401520;32;20034;-70
2022/07/02 04:07:32;;;;;;;6.43;5.80;;;;;;;18.55;100.00;99278.59;4400476;32;20030;-72
2022/07/02 04:09:59;;;;;;;8.40;5.75;;;;;;;18.12;100.00;99244.84;4402255;32;20051;-72
2022/07/02 04:12:25;;;;;;;7.00;6.30;;;;;;;18.22;100.00;99248.53;4402661;32;20077;-71
2022/07/02 04:14:51;;;;;;;7.37;6.68;;;;;;;18.26;100.00;99247.66;4402709;32;20154;-71
2022/07/02 04:17:18;;;;;;;8.25;7.18;;;;;;;18.19;100.00;99243.69;4402970;32;20106;-72
2022/07/02 04:19:51;;;;;;;10.95;7.28;;;;;;;18.56;100.00;99285.69;4402750;32;20473;-72
2022/07/02 04:22:17;;;;;;;12.82;7.57;;;;;;;18.56;100.00;99285.69;4403046;32;20380;-69
2022/07/02 04:24:43;;;;;;;7.85;6.43;;;;;;;18.21;100.00;99285.09;4402011;32;20087;-71
2022/07/02 04:27:10;;;;;;;7.87;6.18;;;;;;;18.15;100.00;99298.75;4400000;32;20057;-70
2022/07/02 04:29:36;;;;;;;7.37;6.43;;;;;;;18.22;100.00;99286.69;4402792;32;20053;-70
2022/07/02 04:32:03;;;;;;;8.27;6.37;;;;;;;17.74;100.00;99244.81;4401684;32;20039;-70
2022/07/02 04:34:30;;;;;;;6.95;5.70;;;;;;;18.21;100.00;99277.72;4402806;32;20065;-70
2022/07/02 04:36:56;;;;;;;6.10;5.60;;;;;;;18.19;100.00;99276.37;4402530;32;20039;-70
2022/07/02 04:39:22;;;;;;;6.00;5.37;;;;;;;18.24;100.00;99249.06;4402742;32;20042;-70
2022/07/02 04:41:49;;;;;;;5.95;5.10;;;;;;;18.19;100.00;99240.94;4401514;32;20035;-70
2022/07/02 04:44:15;;;;;;;8.13;6.28;;;;;;;18.28;100.00;99274.63;4387439;32;20041;-70
2022/07/02 04:46:42;;;;;;;6.80;6.00;;;;;;;18.47;100.00;99294.50;4401771;32;20035;-70
2022/07/02 04:49:08;;;;;;;5.87;5.28;;;;;;;18.36;100.00;99292.22;4402580;32;20080;-70
2022/07/02 04:51:35;;;;;;;7.47;5.07;;;;;;;18.17;100.00;99300.41;4402488;32;20402;-70
2022/07/02 04:54:01;;;;;;;6.22;5.62;;;;;;;17.59;100.00;99209.59;4388842;32;20038;-71
2022/07/02 04:56:28;;;;;;;5.65;4.68;;;;;;;18.03;100.00;99303.84;4402295;32;20039;-72
2022/07/02 04:58:55;;;;;;;6.25;5.57;;;;;;;17.87;100.00;99275.13;4400545;32;20245;-70
2022/07/02 05:01:23;;;;;;;5.12;4.60;;;;;;;18.21;100.00;99312.34;4400070;32;20046;-69
2022/07/02 05:03:51;;;;;;;5.97;5.28;;;;;;;18.10;100.00;99328.81;4401230;32;20366;-69
2022/07/02 05:06:21;;;;;;;5.75;5.25;;;;;;;17.99;100.00;99288.38;4402513;32;20934;-70
2022/07/02 05:08:51;;;;;;;8.20;5.05;;;;;;;17.96;100.00;99309.63;4401828;32;20398;-70
2022/07/02 05:11:19;;;;;;;10.10;5.62;;;;;;;18.11;100.00;99335.88;4402308;32;20043;-69
2022/07/02 05:13:46;;;;;;;5.43;5.00;;;;;;;17.98;100.00;99333.84;4428115;32;20056;-69
2022/07/02 05:16:13;;;;;;;5.78;4.57;;;;;;;18.04;100.00;99329.19;4429833;32;20037;-73
2022/07/02 05:18:39;;;;;;;7.47;3.00;;;;;;;17.79;100.00;99301.94;4431411;32;20122;-74
2022/07/02 05:21:06;;;;;;;6.40;3.12;;;;;;;17.54;100.00;99288.62;4432088;32;20034;-72
2022/07/02 05:23:32;;;;;;;5.78;3.55;;;;;;;17.98;100.00;99342.03;4425128;32;20088;-72
2022/07/02 05:25:59;;;;;;;3.50;3.20;;;;;;;18.02;100.00;99347.72;4404804;32;20081;-72
2022/07/02 05:28:26;;;;;;;3.22;3.03;;;;;;;17.73;100.00;99319.44;4400694;32;20034;-71
2022/07/02 05:30:52;;;;;;;3.17;2.90;;;;;;;17.87;100.00;99373.19;4401501;32;20445;-73
2022/07/02 05:33:19;;;;;;;2.75;2.55;;;;;;;17.84;100.00;99358.25;4401753;32;20051;-72
2022/07/02 05:35:45;;;;;;;2.92;2.65;;;;;;;17.48;100.00;99322.44;4399454;32;20043;-73
2022/07/02 05:38:12;;;;;;;2.75;2.55;;;;;;;17.90;100.00;99383.53;4400032;32;20076;-72
2022/07/02 05:40:39;;;;;;;2.97;2.70;;;;;;;17.85;100.00;99380.84;4401549;32;20063;-72
2022/07/02 05:43:05;;;;;;;3.00;2.80;;;;;;;17.45;100.00;99344.78;4401320;32;20034;-71
2022/07/02 05:45:32;;;;;;;3.55;2.90;;;;;;;17.93;100.00;99391.13;4414966;32;20042;-72
2022/07/02 05:47:58;;;;;;;4.62;2.35;;;;;;;17.82;100.00;99405.94;4422037;32;20119;-71
2022/07/02 05:50:24;;;;;;;1.80;1.70;;;;;;;17.66;100.00;99399.84;4424416;32;20069;-73
2022/07/02 05:52:51;;;;;;;1.92;1.73;;;;;;;17.62;100.00;99405.06;4418132;32;20106;-73
2022/07/02 05:55:18;;;;;;;4.70;1.90;;;;;;;17.38;100.00;99359.53;4425075;32;20061;-73
2022/07/02 05:57:44;;;;;;;1.95;1.85;;;;;;;17.38;100.00;99356.81;4422144;32;20050;-73
2022/07/02 06:00:12;;;;;;;3.85;2.47;;;;;;;17.57;100.00;99391.50;4426870;32;20050;-73
2022/07/02 06:02:38;;;;;;;2.60;1.77;;;;;;;17.74;100.00;99401.94;4424021;32;20120;-73
2022/07/02 06:07:58;;;;;;;2.37;2.17;;;;;;;17.47;100.00;99403.28;4427757;32;20072;-73
2022/07/02 06:10:25;;;;;;;8.18;5.15;;;;;;;17.57;100.00;99424.16;4424112;32;20086;-73
2022/07/02 06:12:53;;;;;;;4.50;4.10;;;;;;;17.51;100.00;99433.47;4426920;32;20058;-73
2022/07/02 06:15:25;;;;;;;2.42;1.87;;;;;;;17.47;100.00;99388.84;4433568;32;20071;-73
2022/07/02 06:17:52;;;;;;;2.08;1.98;;;;;;;17.74;100.00;99437.31;4432804;32;20174;-73
2022/07/02 06:20:19;;;;;;;3.22;1.70;;;;;;;17.47;100.00;99456.91;4417081;32;20084;-74
2022/07/02 06:22:46;;;;;;;1.23;1.23;;;;;;;17.57;100.00;99459.56;4424926;32;20046;-72
2022/07/02 06:25:12;;;;;;;1.52;1.52;;;;;;;17.58;100.00;99455.72;4420312;32;20406;-73
2022/07/02 06:27:40;;;;;;;4.45;1.60;;;;;;;17.73;100.00;99455.59;4420959;32;20038;-73
2022/07/02 06:30:10;;;;;;;1.25;1.20;;;;;;;17.78;100.00;99466.44;4422737;32;20068;-72
2022/07/02 06:32:37;;;;;;;1.60;1.50;;;;;;;17.59;100.00;99455.44;4426909;32;20332;-73
2022/07/02 06:35:04;;;;;;;1.62;1.62;;;;;;;17.60;100.00;99461.72;4431384;32;20039;-74
2022/07/02 06:37:31;;;;;;;1.40;1.40;;;;;;;17.55;100.00;99454.41;4430041;32;20042;-74
2022/07/02 06:39:58;;;;;;;1.23;1.23;;;;;;;17.61;100.00;99474.22;4431388;32;20097;-71
2022/07/02 06:42:29;;;;;;;3.33;1.70;;;;;;;17.71;100.00;99457.78;4415740;32;20046;-72
2022/07/02 06:44:58;;;;;;;1.42;1.42;;;;;;;17.54;100.00;99430.19;4418624;32;20111;-73
2022/07/02 06:47:26;;;;;;;1.85;1.83;;;;;;;17.70;100.00;99467.06;4419150;32;20099;-73
2022/07/02 06:49:55;;;;;;;4.20;1.58;;;;;;;17.46;100.00;99445.22;4416357;32;20027;-73
2022/07/02 06:52:23;;;;;;;1.37;1.15;;;;;;;17.52;100.00;99481.34;4401962;32;20117;-73
2022/07/02 06:54:49;;;;;;;2.72;1.20;;;;;;;17.34;100.00;99456.47;4413206;32;20054;-74
2022/07/02 06:57:17;;;;;;;1.45;1.45;;;;;;;17.64;100.00;99492.69;4427298;32;20105;-72
2022/07/02 06:59:46;;;;;;;1.75;1.65;;;;;;;17.79;100.00;99500.75;4404135;32;20039;-73
2022/07/02 07:02:12;;;;;;;1.92;1.73;;;;;;;17.70;100.00;99496.19;4404017;32;20379;-72
2022/07/02 07:04:39;;;;;;;2.47;2.03;;;;;;;17.55;100.00;99464.44;4403206;32;20042;-73
2022/07/02 07:07:06;;;;;;;3.33;1.87;;;;;;;17.79;100.00;99508.91;4416683;32;20140;-72
2022/07/02 07:09:34;;;;;;;1.52;1.48;;;;;;;17.61;100.00;99501.44;4407705;32;20026;-73
2022/07/02 07:12:04;;;;;;;1.83;1.83;;;;;;;17.73;100.00;99504.59;4427454;32;20072;-73
2022/07/02 07:14:32;;;;;;;1.92;1.83;;;;;;;17.77;100.00;99510.28;4417302;32;20046;-73
2022/07/02 07:16:59;;;;;;;1.85;1.77;;;;;;;17.75;100.00;99507.03;4402293;32;20089;-73
2022/07/02 07:19:25;;;;;;;3.20;1.85;;;;;;;17.85;100.00;99514.31;4414944;32;20411;-73
2022/07/02 07:21:52;;;;;;;2.28;2.08;;;;;;;17.81;100.00;99518.72;4420553;32;20064;-75
2022/07/02 07:24:18;;;;;;;1.40;1.40;;;;;;;17.67;100.00;99489.41;4415706;32;20060;-74
2022/07/02 07:26:44;;;;;;;2.55;1.87;;;;;;;17.76;100.00;99535.91;4414033;32;20124;-73
2022/07/02 07:29:11;;;;;;;2.25;2.12;;;;;;;17.50;100.00;99486.28;4414719;32;20058;-74
2022/07/02 07:31:37;;;;;;;2.17;2.05;;;;;;;17.91;100.00;99532.28;4420452;32;20052;-71
2022/07/02 07:34:06;;;;;;;3.72;2.62;;;;;;;18.02;100.00;99539.25;4419093;32;20042;-72
2022/07/02 07:36:33;;;;;;;3.70;2.28;;;;;;;17.73;100.00;99514.69;4417580;32;20038;-72
2022/07/02 07:39:01;;;;;;;2.05;1.55;;;;;;;17.89;100.00;99543.44;4420033;32;20059;-72
2022/07/02 07:41:28;;;;;;;2.12;1.70;;;;;;;17.72;100.00;99532.94;4422757;32;20460;-74
2022/07/02 07:43:55;;;;;;;1.30;1.30;;;;;;;17.85;100.00;99542.34;4418370;32;20082;-72
2022/07/02 07:46:21;;;;;;;1.55;1.33;;;;;;;18.05;100.00;99552.31;4418837;32;20042;-73
2022/07/02 07:48:48;;;;;;;1.33;1.30;;;;;;;17.97;100.00;99547.47;4404753;32;20027;-73
2022/07/02 07:51:15;;;;;;;1.30;1.23;;;;;;;17.57;100.00;99495.75;4418553;32;20131;-73
2022/07/02 07:53:43;;;;;;;1.35;1.35;;;;;;;17.76;100.00;99514.94;4417064;32;20038;-73
2022/07/02 07:56:09;;;;;;;1.75;1.45;;;;;;;18.02;100.00;99552.88;4418046;32;20108;-73
2022/07/02 07:58:36;;;;;;;4.72;1.33;;;;;;;18.04;100.00;99574.37;4414282;32;20075;-74
2022/07/02 08:01:03;;;;;;;1.73;1.50;;;;;;;17.87;100.00;99532.00;4416467;32;20026;-73
2022/07/02 08:03:29;;;;;;;2.87;1.83;;;;;;;18.26;100.00;99576.63;4402220;32;20110;-73
2022/07/02 08:05:57;;;;;;;1.60;1.50;;;;;;;18.22;100.00;99559.22;4403616;32;20165;-73
2022/07/02 08:08:23;;;;;;;1.95;1.85;;;;;;;18.31;100.00;99592.94;4415702;32;20060;-74
2022/07/02 08:10:50;;;;;;;1.48;1.48;;;;;;;18.32;100.00;99578.22;4417017;32;20435;-74
2022/07/02 08:13:17;;;;;;;2.37;1.58;;;;;;;18.04;100.00;99564.28;4417911;32;20047;-74
2022/07/02 08:15:44;;;;;;;2.55;2.42;;;;;;;18.06;100.00;99544.94;4417177;32;20034;-74
2022/07/02 08:18:10;;;;;;;5.00;1.73;;;;;;;18.34;100.00;99551.47;4416698;32;20037;-75
2022/07/02 08:20:37;;;;;;;2.25;1.60;;;;;;;18.68;100.00;99588.72;4418165;32;20181;-74
2022/07/02 08:23:10;;;;;;;1.35;1.25;;;;;;;18.77;100.00;99597.09;4418602;32;20064;-73
2022/07/02 08:25:36;;;;;;;1.92;1.58;;;;;;;18.42;100.00;99534.47;4425277;32;20056;-74
2022/07/02 08:28:04;;;;;;;3.42;1.10;;;;;;;18.54;100.00;99571.44;4432696;32;20046;-74
2022/07/02 08:30:30;;;;;;;1.00;1.00;;;;;;;18.54;100.00;99557.81;4410995;32;20047;-73
2022/07/02 08:32:57;;;;;;;2.58;1.45;;;;;;;18.76;100.00;99590.03;4400487;32;20391;-74
2022/07/02 08:35:23;;;;;;;1.60;1.50;;;;;;;18.71;100.00;99588.16;4395584;32;20076;-74
2022/07/02 08:37:56;;;;;;;2.17;1.48;;;;;;;18.96;100.00;99589.00;4418009;32;20075;-74
2022/07/02 08:40:24;;;;;;;1.00;1.00;;;;;;;18.71;100.00;99582.69;4417903;32;20391;-73
2022/07/02 08:42:53;;;;;;;1.58;1.35;;;;;;;18.57;100.00;99529.97;4417139;32;20080;-73
2022/07/02 08:45:23;;;;;;;6.15;2.37;;;;;;;19.04;100.00;99602.00;4417225;32;20092;-74
2022/07/02 08:47:52;;;;;;;1.75;1.65;;;;;;;18.80;100.00;99555.62;4418468;32;20034;-74
2022/07/02 08:50:20;;;;;;;1.62;1.20;;;;;;;19.07;100.00;99601.41;4416450;32;20058;-74
2022/07/02 08:52:49;;;;;;;2.20;1.20;;;;;;;18.76;100.00;99568.19;4417275;32;20064;-74
2022/07/02 08:55:22;;;;;;;1.70;1.20;;;;;;;19.18;100.00;99602.91;4404639;32;20061;-74
2022/07/02 08:57:50;;;;;;;1.25;1.25;;;;;;;19.05;100.00;99554.47;4417378;32;20034;-74
2022/07/02 09:00:20;;;;;;;2.00;1.80;;;;;;;19.28;100.00;99590.25;4417900;32;20469;-74
2022/07/02 09:02:50;;;;;;;1.45;1.37;;;;;;;19.13;100.00;99611.16;4404400;32;20461;-76
2022/07/02 09:05:17;;;;;;;1.37;1.15;;;;;;;19.34;100.00;99611.72;4417977;32;20444;-74
2022/07/02 09:07:46;;;;;;;1.55;1.45;;;;;;;19.48;100.00;99625.47;4414791;32;20089;-74
2022/07/02 09:10:13;;;;;;;3.65;1.60;;;;;;;19.16;100.00;99588.75;4402816;32;20043;-75
2022/07/02 09:12:40;;;;;;;6.85;1.37;;;;;;;19.19;100.00;99620.94;4403134;32;20035;-75
2022/07/02 09:15:07;;;;;;;2.40;1.85;;;;;;;19.20;100.00;99621.72;4417532;32;20403;-75
2022/07/02 09:17:33;;;;;;;1.77;1.30;;;;;;;19.02;100.00;99591.38;4421652;32;20041;-74
2022/07/02 09:20:00;;;;;;;1.48;1.37;;;;;;;19.15;100.00;99630.78;4423761;32;20338;-75
2022/07/02 09:22:33;;;;;;;0.98;0.98;;;;;;;19.11;100.00;99635.19;4428962;32;20075;-76
2022/07/02 09:25:11;;;;;;;1.42;1.42;;;;;;;19.03;100.00;99627.66;4417049;32;20050;-75
2022/07/02 09:27:38;;;;;;;4.55;1.50;;;;;;;19.04;100.00;99629.28;4422568;32;20038;-76
2022/07/02 09:30:07;;;;;;;1.65;1.55;;;;;;;19.20;100.00;99644.38;4421621;32;20466;-74
2022/07/02 09:32:41;;;;;;;3.08;1.80;;;;;;;19.22;100.00;99642.16;4422983;32;20076;-75
2022/07/02 09:35:20;;;;;;;2.28;1.20;;;;;;;19.16;100.00;99643.34;4409361;32;20056;-75
2022/07/02 09:37:48;;;;;;;1.52;1.42;;;;;;;19.08;100.00;99611.22;4421794;32;20348;-75
2022/07/02 09:40:15;;;;;;;1.55;1.33;;;;;;;19.43;100.00;99652.81;4432157;32;20064;-74
2022/07/02 09:42:47;;;;;;;1.20;1.20;;;;;;;19.19;100.00;99642.75;4431732;32;20063;-76
2022/07/02 09:45:14;;;;;;;1.37;1.35;;;;;;;19.01;100.00;99627.94;4429341;32;20038;-75
2022/07/02 09:47:49;;;;;;;1.08;1.08;;;;;;;18.96;100.00;99662.69;4430792;32;20348;-76
2022/07/02 09:50:18;;;;;;;3.78;1.37;;;;;;;18.96;100.00;99654.50;4418217;32;20067;-75
2022/07/02 09:52:58;;;;;;;6.40;1.70;;;;;;;19.05;100.00;99639.91;4413628;32;20429;-74
2022/07/02 09:55:29;;;;;;;1.30;1.30;;;;;;;18.76;100.00;99611.84;4416536;32;20470;-77
2022/07/02 09:57:58;;;;;;;1.30;1.30;;;;;;;19.00;100.00;99660.97;4408758;32;20113;-76
2022/07/02 10:00:26;;;;;;;3.08;1.40;;;;;;;18.51;100.00;99628.19;4420810;32;20445;-76
2022/07/02 10:02:56;;;;;;;2.17;1.60;;;;;;;18.65;100.00;99657.50;4416500;32;20038;-74
2022/07/02 10:05:26;;;;;;;3.35;1.50;;;;;;;18.70;100.00;99652.00;4416714;32;20042;-74
2022/07/02 10:07:54;;;;;;;2.00;1.48;;;;;;;18.67;100.00;99619.84;4416363;32;20053;-72
2022/07/02 10:10:36;;;;;;;1.42;1.33;;;;;;;19.10;100.00;99658.16;4415011;32;20034;-74
2022/07/02 10:13:03;;;;;;;1.92;1.83;;;;;;;19.02;100.00;99650.59;4414647;32;20039;-72
2022/07/02 10:15:31;;;;;;;1.92;1.80;;;;;;;18.87;100.00;99667.94;4416216;32;20038;-72
2022/07/02 10:18:00;;;;;;;7.03;1.65;;;;;;;18.93;100.00;99660.53;4415438;32;20072;-71
2022/07/02 10:20:29;;;;;;;1.75;1.65;;;;;;;18.96;100.00;99676.31;4415903;32;20046;-72
2022/07/02 10:23:00;;;;;;;1.70;1.60;;;;;;;18.82;100.00;99671.50;4415418;32;20070;-73
2022/07/02 10:25:27;;;;;;;2.00;1.90;;;;;;;18.92;100.00;99669.81;4417453;32;20046;-72
2022/07/02 10:27:55;;;;;;;4.57;2.10;;;;;;;18.93;100.00;99666.00;4421769;32;20071;-72
2022/07/02 10:30:28;;;;;;;2.00;1.90;;;;;;;19.00;100.00;99637.25;4419251;32;20428;-72
2022/07/02 10:32:55;;;;;;;2.45;2.20;;;;;;;19.37;100.00;99648.50;4415937;32;20042;-72
2022/07/02 10:35:23;;;;;;;3.58;2.50;;;;;;;19.26;100.00;99619.72;4416220;32;20039;-72
2022/07/02 10:37:57;;;;;;;2.15;1.95;;;;;;;19.34;100.00;99655.41;4415580;32;20080;-74
2022/07/02 10:40:24;;;;;;;2.12;2.03;;;;;;;19.02;100.00;99658.78;4416320;32;20033;-70
2022/07/02 10:42:53;;;;;;;4.03;2.22;;;;;;;18.85;100.00;99616.41;4426337;32;20524;-73
2022/07/02 10:45:23;;;;;;;8.02;2.47;;;;;;;19.11;100.00;99662.47;4431328;32;20042;-70
2022/07/02 10:48:06;;;;;;;3.60;2.60;;;;;;;19.13;100.00;99663.03;4430548;32;20448;-72
2022/07/02 10:50:35;;;;;;;2.72;1.98;;;;;;;19.00;100.00;99669.16;4429934;32;20030;-72
2022/07/02 10:53:22;;;;;;;1.90;1.80;;;;;;;18.98;100.00;99668.66;4431144;32;20060;-72
2022/07/02 10:55:52;;;;;;;1.87;1.77;;;;;;;18.60;100.00;99643.91;4430800;32;20039;-72
2022/07/02 10:58:27;;;;;;;6.20;2.25;;;;;;;18.29;100.00;99636.84;4419899;32;20076;-71
2022/07/02 11:00:55;;;;;;;2.00;1.90;;;;;;;18.80;100.00;99678.38;4422491;32;20071;-72
2022/07/02 11:03:24;;;;;;;2.50;2.35;;;;;;;18.96;100.00;99662.69;4415688;32;20047;-73
2022/07/02 11:05:51;;;;;;;3.40;2.10;;;;;;;18.81;100.00;99642.63;4415719;32;20054;-73
2022/07/02 11:08:46;;;;;;;1.70;1.60;;;;;;;19.01;100.00;99668.06;4402279;32;20034;-73
2022/07/02 11:11:17;;;;;;;2.03;2.00;;;;;;;18.91;100.00;99668.16;4413319;32;20060;-74
2022/07/02 11:13:44;;;;;;;2.10;2.00;;;;;;;18.83;100.00;99688.72;4414544;32;20066;-73
2022/07/02 11:16:19;;;;;;;1.92;1.87;;;;;;;18.77;100.00;99674.28;4423676;32;20083;-72
2022/07/02 11:18:46;;;;;;;2.80;2.10;;;;;;;18.74;100.00;99684.97;4421016;32;20451;-71
2022/07/02 11:21:13;;;;;;;3.20;2.08;;;;;;;18.92;100.00;99680.72;4426753;32;20379;-72
2022/07/02 11:23:40;;;;;;;5.55;2.37;;;;;;;18.90;100.00;99688.37;4431110;32;20050;-72
2022/07/02 11:26:07;;;;;;;3.45;3.15;;;;;;;18.87;100.00;99674.22;4429103;32;20400;-73
2022/07/02 11:28:37;;;;;;;2.85;2.60;;;;;;;18.75;100.00;99632.84;4430453;32;20077;-71
2022/07/02 11:31:04;;;;;;;3.97;3.12;;;;;;;19.15;100.00;99674.47;4430813;32;20064;-73
2022/07/02 11:33:34;;;;;;;7.57;4.37;;;;;;;19.35;100.00;99645.28;4417102;32;20068;-74